ETD603 OPKC-OMAA
Flight info
| Callsign | ETD603 |
|---|---|
| Flight time | 2h 2m |
| Altitude | 38000 |
| Route | MELOM1G MELOM A325 PARET A454 VUSET R462 MIXAM P899 ROVOS ROVOS4B |
| Aircraft | B77W/H-SDE1E2E3FGHIJ2J3J4J5M1RWXY/LB1D1 |
Departure
| Time | 2026-05-05 20:22 |
|---|---|
| Airport | Jinnah International Airport (OPKC) |
Arrival
| Time | 2026-05-05 22:24 |
|---|---|
| Airport | Zayed International Airport (OMAA) |
| Time | Latitude | Longitude | Altitude | Speed | Heading |
|---|---|---|---|---|---|
| 2026-05-05 20:13 | 24.90740 | 67.17451 | 103 ft | 0 kts | 29° |
| 2026-05-05 20:20 | 24.90754 | 67.17459 | 124 ft | 6 kts | 28° |
| 2026-05-05 20:20 | 24.90814 | 67.17478 | 105 ft | 13 kts | 355° |
| 2026-05-05 20:21 | 24.90853 | 67.17388 | 107 ft | 17 kts | 261° |
| 2026-05-05 20:21 | 24.90815 | 67.17233 | 106 ft | 24 kts | 253° |
| 2026-05-05 20:21 | 24.90726 | 67.16881 | 103 ft | 88 kts | 255° |
| 2026-05-05 20:21 | 24.90484 | 67.15905 | 97 ft | 174 kts | 255° |
| 2026-05-05 20:22 | 24.90217 | 67.14788 | 229 ft | 213 kts | 255° |
| 2026-05-05 20:22 | 24.89836 | 67.13238 | 1300 ft | 200 kts | 255° |
| 2026-05-05 20:22 | 24.89444 | 67.11698 | 2049 ft | 214 kts | 251° |
| 2026-05-05 20:22 | 24.88680 | 67.10315 | 2693 ft | 214 kts | 219° |
| 2026-05-05 20:23 | 24.87536 | 67.09214 | 3329 ft | 224 kts | 220° |
| 2026-05-05 20:23 | 24.86352 | 67.08040 | 4014 ft | 233 kts | 220° |
| 2026-05-05 20:23 | 24.85179 | 67.06869 | 4705 ft | 243 kts | 220° |
| 2026-05-05 20:23 | 24.83897 | 67.05587 | 5405 ft | 255 kts | 221° |
| 2026-05-05 20:24 | 24.82553 | 67.04240 | 6137 ft | 267 kts | 221° |
| 2026-05-05 20:24 | 24.81147 | 67.02830 | 6830 ft | 280 kts | 221° |
| 2026-05-05 20:24 | 24.79671 | 67.01349 | 7534 ft | 292 kts | 223° |
| 2026-05-05 20:24 | 24.78432 | 66.99557 | 8172 ft | 301 kts | 250° |
| 2026-05-05 20:25 | 24.78111 | 66.97290 | 8900 ft | 304 kts | 277° |
| 2026-05-05 20:25 | 24.78355 | 66.94959 | 9661 ft | 311 kts | 279° |
| 2026-05-05 20:25 | 24.78635 | 66.92548 | 10348 ft | 324 kts | 279° |
| 2026-05-05 20:25 | 24.78923 | 66.90041 | 11035 ft | 337 kts | 279° |
| 2026-05-05 20:26 | 24.79212 | 66.87431 | 11739 ft | 350 kts | 279° |
| 2026-05-05 20:26 | 24.79503 | 66.84726 | 12461 ft | 363 kts | 279° |
| 2026-05-05 20:26 | 24.79829 | 66.81933 | 13172 ft | 370 kts | 284° |
| 2026-05-05 20:26 | 24.80784 | 66.79305 | 13842 ft | 373 kts | 306° |
| 2026-05-05 20:27 | 24.82511 | 66.77192 | 14514 ft | 373 kts | 319° |
| 2026-05-05 20:27 | 24.84430 | 66.75209 | 15205 ft | 382 kts | 319° |
| 2026-05-05 20:27 | 24.86391 | 66.73184 | 15903 ft | 390 kts | 319° |
| 2026-05-05 20:27 | 24.88384 | 66.71116 | 16606 ft | 397 kts | 318° |
| 2026-05-05 20:28 | 24.90406 | 66.69003 | 17324 ft | 403 kts | 318° |
| 2026-05-05 20:28 | 24.92440 | 66.66863 | 18051 ft | 407 kts | 317° |
| 2026-05-05 20:28 | 24.94496 | 66.64691 | 18706 ft | 411 kts | 317° |
| 2026-05-05 20:28 | 24.96561 | 66.62505 | 19336 ft | 413 kts | 317° |
| 2026-05-05 20:29 | 24.98635 | 66.60307 | 19991 ft | 414 kts | 317° |
| 2026-05-05 20:29 | 25.00714 | 66.58103 | 20672 ft | 415 kts | 317° |
| 2026-05-05 20:29 | 25.02790 | 66.55902 | 21333 ft | 414 kts | 316° |
| 2026-05-05 20:29 | 25.04805 | 66.53652 | 21996 ft | 411 kts | 309° |
| 2026-05-05 20:30 | 25.06274 | 66.50960 | 22697 ft | 410 kts | 292° |
| 2026-05-05 20:30 | 25.07064 | 66.47957 | 23416 ft | 406 kts | 285° |
| 2026-05-05 20:30 | 25.07708 | 66.44944 | 24026 ft | 402 kts | 285° |
| 2026-05-05 20:30 | 25.08341 | 66.41951 | 24636 ft | 398 kts | 285° |
| 2026-05-05 20:31 | 25.08971 | 66.38993 | 25240 ft | 394 kts | 285° |
| 2026-05-05 20:31 | 25.09599 | 66.36078 | 25877 ft | 388 kts | 285° |
| 2026-05-05 20:31 | 25.10224 | 66.33203 | 26519 ft | 382 kts | 285° |
| 2026-05-05 20:31 | 25.10844 | 66.30374 | 27182 ft | 375 kts | 285° |
| 2026-05-05 20:32 | 25.11453 | 66.27605 | 27845 ft | 368 kts | 286° |
| 2026-05-05 20:32 | 25.12050 | 66.24897 | 28520 ft | 359 kts | 286° |
| 2026-05-05 20:32 | 25.12632 | 66.22256 | 29211 ft | 349 kts | 286° |
| 2026-05-05 20:32 | 25.13198 | 66.19690 | 29908 ft | 338 kts | 286° |
| 2026-05-05 20:33 | 25.13562 | 66.18040 | 30290 ft | 330 kts | 286° |
| 2026-05-05 20:33 | 25.14273 | 66.14810 | 30892 ft | 320 kts | 286° |
| 2026-05-05 20:33 | 25.14623 | 66.13226 | 30946 ft | 323 kts | 286° |
| 2026-05-05 20:33 | 25.15165 | 66.10777 | 30753 ft | 335 kts | 286° |
| 2026-05-05 20:34 | 25.15728 | 66.08234 | 30584 ft | 346 kts | 286° |
| 2026-05-05 20:34 | 25.16297 | 66.05650 | 30734 ft | 345 kts | 286° |
| 2026-05-05 20:34 | 25.16854 | 66.03104 | 31180 ft | 337 kts | 286° |
| 2026-05-05 20:34 | 25.17396 | 66.00624 | 31609 ft | 329 kts | 286° |
| 2026-05-05 20:35 | 25.17933 | 65.98173 | 31754 ft | 330 kts | 286° |
| 2026-05-05 20:35 | 25.18482 | 65.95672 | 31601 ft | 340 kts | 286° |
| 2026-05-05 20:35 | 25.19047 | 65.93100 | 31454 ft | 349 kts | 286° |
| 2026-05-05 20:35 | 25.19618 | 65.90488 | 31572 ft | 349 kts | 285° |
| 2026-05-05 20:36 | 25.20181 | 65.87906 | 31947 ft | 342 kts | 286° |
| 2026-05-05 20:36 | 25.20731 | 65.85377 | 32340 ft | 335 kts | 286° |
| 2026-05-05 20:36 | 25.21275 | 65.82878 | 32475 ft | 336 kts | 286° |
| 2026-05-05 20:36 | 25.21828 | 65.80342 | 32342 ft | 344 kts | 286° |
| 2026-05-05 20:37 | 25.22397 | 65.77738 | 32208 ft | 352 kts | 285° |
| 2026-05-05 20:37 | 25.23536 | 65.72491 | 32629 ft | 347 kts | 285° |
| 2026-05-05 20:37 | 25.24091 | 65.69927 | 32982 ft | 341 kts | 285° |
| 2026-05-05 20:38 | 25.24641 | 65.67388 | 33119 ft | 341 kts | 286° |
| 2026-05-05 20:38 | 25.25198 | 65.64823 | 33013 ft | 347 kts | 285° |
| 2026-05-05 20:38 | 25.25767 | 65.62202 | 32871 ft | 354 kts | 285° |
| 2026-05-05 20:39 | 25.26911 | 65.56904 | 33198 ft | 351 kts | 285° |
| 2026-05-05 20:39 | 25.27471 | 65.54306 | 33524 ft | 345 kts | 285° |
| 2026-05-05 20:39 | 25.28024 | 65.51736 | 33660 ft | 345 kts | 285° |
| 2026-05-05 20:40 | 25.29154 | 65.46498 | 33418 ft | 357 kts | 285° |
| 2026-05-05 20:40 | 25.30302 | 65.41159 | 33678 ft | 354 kts | 285° |
| 2026-05-05 20:40 | 25.30866 | 65.38527 | 33942 ft | 349 kts | 285° |
| 2026-05-05 20:41 | 25.31424 | 65.35924 | 34063 ft | 348 kts | 285° |
| 2026-05-05 20:41 | 25.32552 | 65.30651 | 33910 ft | 358 kts | 285° |
| 2026-05-05 20:42 | 25.33700 | 65.25270 | 34049 ft | 357 kts | 285° |
| 2026-05-05 20:42 | 25.34266 | 65.22613 | 34254 ft | 353 kts | 285° |
| 2026-05-05 20:42 | 25.34825 | 65.19981 | 34390 ft | 352 kts | 285° |
| 2026-05-05 20:43 | 25.35956 | 65.14664 | 34262 ft | 360 kts | 285° |
| 2026-05-05 20:43 | 25.37106 | 65.09245 | 34381 ft | 360 kts | 285° |
| 2026-05-05 20:43 | 25.37673 | 65.06566 | 34568 ft | 357 kts | 285° |
| 2026-05-05 20:44 | 25.38235 | 65.03905 | 34700 ft | 355 kts | 285° |
| 2026-05-05 20:44 | 25.39010 | 65.00241 | 34640 ft | 359 kts | 285° |
| 2026-05-05 20:45 | 25.40731 | 64.92085 | 34717 ft | 362 kts | 284° |
| 2026-05-05 20:45 | 25.41299 | 64.89387 | 34873 ft | 359 kts | 284° |
| 2026-05-05 20:45 | 25.41825 | 64.86695 | 34934 ft | 358 kts | 278° |
| 2026-05-05 20:46 | 25.41832 | 64.83908 | 34696 ft | 371 kts | 264° |
| 2026-05-05 20:46 | 25.41186 | 64.81082 | 34374 ft | 388 kts | 254° |
| 2026-05-05 20:46 | 25.39465 | 64.75458 | 34687 ft | 377 kts | 258° |
| 2026-05-05 20:47 | 25.38709 | 64.72733 | 35172 ft | 364 kts | 258° |
| 2026-05-05 20:47 | 25.37981 | 64.70069 | 35366 ft | 361 kts | 258° |
| 2026-05-05 20:47 | 25.37253 | 64.67393 | 35183 ft | 368 kts | 258° |
| 2026-05-05 20:47 | 25.36505 | 64.64640 | 34808 ft | 380 kts | 258° |
| 2026-05-05 20:48 | 25.35731 | 64.61809 | 34621 ft | 387 kts | 258° |
| 2026-05-05 20:48 | 25.34949 | 64.58983 | 34830 ft | 381 kts | 258° |
| 2026-05-05 20:48 | 25.34176 | 64.56216 | 35221 ft | 371 kts | 257° |
| 2026-05-05 20:48 | 25.33420 | 64.53519 | 35502 ft | 365 kts | 257° |
| 2026-05-05 20:49 | 25.31908 | 64.48086 | 35113 ft | 379 kts | 257° |
| 2026-05-05 20:49 | 25.31126 | 64.45273 | 34899 ft | 386 kts | 257° |
| 2026-05-05 20:49 | 25.30336 | 64.42446 | 35003 ft | 384 kts | 257° |
| 2026-05-05 20:50 | 25.29554 | 64.39660 | 35329 ft | 375 kts | 257° |
| 2026-05-05 20:50 | 25.28787 | 64.36939 | 35612 ft | 368 kts | 257° |
| 2026-05-05 20:50 | 25.27263 | 64.31500 | 35394 ft | 377 kts | 257° |
| 2026-05-05 20:51 | 25.26482 | 64.28705 | 35169 ft | 385 kts | 257° |
| 2026-05-05 20:51 | 25.25688 | 64.25875 | 35175 ft | 385 kts | 257° |
| 2026-05-05 20:51 | 25.24898 | 64.23070 | 35414 ft | 379 kts | 257° |
| 2026-05-05 20:51 | 25.24121 | 64.20321 | 35678 ft | 372 kts | 257° |
| 2026-05-05 20:52 | 25.22582 | 64.14864 | 35607 ft | 377 kts | 257° |
| 2026-05-05 20:52 | 25.21798 | 64.12075 | 35389 ft | 383 kts | 257° |
| 2026-05-05 20:52 | 25.21004 | 64.09254 | 35328 ft | 386 kts | 257° |
| 2026-05-05 20:53 | 25.20207 | 64.06438 | 35497 ft | 381 kts | 257° |
| 2026-05-05 20:53 | 25.19420 | 64.03662 | 35730 ft | 376 kts | 257° |
| 2026-05-05 20:53 | 25.18643 | 64.00927 | 35866 ft | 373 kts | 257° |
| 2026-05-05 20:53 | 25.17868 | 63.98187 | 35800 ft | 376 kts | 257° |
| 2026-05-05 20:54 | 25.17082 | 63.95409 | 35594 ft | 382 kts | 257° |
| 2026-05-05 20:54 | 25.16286 | 63.92594 | 35495 ft | 386 kts | 257° |
| 2026-05-05 20:54 | 25.14690 | 63.86981 | 35776 ft | 379 kts | 256° |
| 2026-05-05 20:55 | 25.13905 | 63.84226 | 35928 ft | 375 kts | 256° |
| 2026-05-05 20:55 | 25.13123 | 63.81480 | 35914 ft | 376 kts | 256° |
| 2026-05-05 20:55 | 25.12333 | 63.78703 | 35761 ft | 382 kts | 256° |
| 2026-05-05 20:55 | 25.11535 | 63.75894 | 35629 ft | 386 kts | 256° |
| 2026-05-05 20:56 | 25.09927 | 63.70261 | 35815 ft | 382 kts | 256° |
| 2026-05-05 20:56 | 25.09133 | 63.67489 | 35978 ft | 378 kts | 256° |
| 2026-05-05 20:56 | 25.08343 | 63.64730 | 36010 ft | 377 kts | 256° |
| 2026-05-05 20:57 | 25.06750 | 63.59157 | 35789 ft | 385 kts | 256° |
| 2026-05-05 20:57 | 25.05132 | 63.53509 | 35841 ft | 384 kts | 256° |
| 2026-05-05 20:58 | 25.04329 | 63.50719 | 35999 ft | 380 kts | 256° |
| 2026-05-05 20:58 | 25.03533 | 63.47951 | 36096 ft | 378 kts | 256° |
| 2026-05-05 20:58 | 25.01934 | 63.42385 | 35909 ft | 385 kts | 256° |
| 2026-05-05 20:59 | 25.00308 | 63.36738 | 35884 ft | 386 kts | 256° |
| 2026-05-05 20:59 | 24.99497 | 63.33929 | 36023 ft | 383 kts | 256° |
| 2026-05-05 20:59 | 24.98693 | 63.31148 | 36144 ft | 380 kts | 256° |
| 2026-05-05 21:00 | 24.97083 | 63.25575 | 36030 ft | 384 kts | 256° |
| 2026-05-05 21:00 | 24.95452 | 63.19934 | 35955 ft | 387 kts | 256° |
| 2026-05-05 21:01 | 24.93825 | 63.14325 | 36164 ft | 382 kts | 255° |
| 2026-05-05 21:01 | 24.92206 | 63.08749 | 36136 ft | 384 kts | 255° |
| 2026-05-05 21:02 | 24.90570 | 63.03118 | 36045 ft | 387 kts | 255° |
| 2026-05-05 21:02 | 24.88933 | 62.97499 | 36197 ft | 383 kts | 255° |
| 2026-05-05 21:03 | 24.87304 | 62.91915 | 36211 ft | 384 kts | 255° |
| 2026-05-05 21:03 | 24.85661 | 62.86287 | 36104 ft | 387 kts | 255° |
| 2026-05-05 21:04 | 24.84012 | 62.80652 | 36213 ft | 385 kts | 255° |
| 2026-05-05 21:04 | 24.82371 | 62.75053 | 36271 ft | 384 kts | 255° |
| 2026-05-05 21:05 | 24.80732 | 62.69465 | 36182 ft | 387 kts | 255° |
| 2026-05-05 21:05 | 24.79064 | 62.63791 | 36234 ft | 386 kts | 255° |
| 2026-05-05 21:06 | 24.77412 | 62.58183 | 36309 ft | 385 kts | 255° |
| 2026-05-05 21:06 | 24.75766 | 62.52599 | 36246 ft | 387 kts | 255° |
| 2026-05-05 21:07 | 24.74091 | 62.46922 | 36273 ft | 387 kts | 255° |
| 2026-05-05 21:07 | 24.72429 | 62.41306 | 36349 ft | 385 kts | 255° |
| 2026-05-05 21:08 | 24.70777 | 62.35727 | 36306 ft | 387 kts | 255° |
| 2026-05-05 21:08 | 24.69093 | 62.30049 | 36298 ft | 388 kts | 254° |
| 2026-05-05 21:09 | 24.67423 | 62.24430 | 36407 ft | 386 kts | 254° |
| 2026-05-05 21:09 | 24.65755 | 62.18822 | 36366 ft | 387 kts | 254° |
| 2026-05-05 21:10 | 24.64075 | 62.13182 | 36316 ft | 389 kts | 254° |
| 2026-05-05 21:10 | 24.62393 | 62.07550 | 36412 ft | 387 kts | 254° |
| 2026-05-05 21:11 | 24.60715 | 62.01937 | 36422 ft | 387 kts | 254° |
| 2026-05-05 21:11 | 24.59029 | 61.96301 | 36373 ft | 389 kts | 254° |
| 2026-05-05 21:12 | 24.57342 | 61.90674 | 36438 ft | 387 kts | 254° |
| 2026-05-05 21:12 | 24.55655 | 61.85055 | 36462 ft | 388 kts | 254° |
| 2026-05-05 21:13 | 24.54248 | 61.80375 | 36419 ft | 389 kts | 254° |
| 2026-05-05 21:13 | 24.52264 | 61.73787 | 36466 ft | 388 kts | 254° |
| 2026-05-05 21:14 | 24.50854 | 61.69111 | 36488 ft | 388 kts | 254° |
| 2026-05-05 21:14 | 24.49155 | 61.63485 | 36463 ft | 389 kts | 254° |
| 2026-05-05 21:15 | 24.47450 | 61.57846 | 36469 ft | 389 kts | 254° |
| 2026-05-05 21:15 | 24.45746 | 61.52219 | 36515 ft | 388 kts | 254° |
| 2026-05-05 21:16 | 24.44040 | 61.46594 | 36494 ft | 389 kts | 254° |
| 2026-05-05 21:16 | 24.42328 | 61.40956 | 36486 ft | 389 kts | 254° |
| 2026-05-05 21:17 | 24.40616 | 61.35326 | 36521 ft | 389 kts | 253° |
| 2026-05-05 21:17 | 24.39148 | 61.29624 | 36466 ft | 389 kts | 259° |
| 2026-05-05 21:18 | 24.37979 | 61.23825 | 36470 ft | 389 kts | 259° |
| 2026-05-05 21:18 | 24.36814 | 61.18055 | 36570 ft | 387 kts | 259° |
| 2026-05-05 21:19 | 24.35628 | 61.12292 | 36512 ft | 389 kts | 259° |
| 2026-05-05 21:19 | 24.34422 | 61.06495 | 36482 ft | 390 kts | 258° |
| 2026-05-05 21:20 | 24.33214 | 61.00718 | 36579 ft | 387 kts | 258° |
| 2026-05-05 21:20 | 24.32007 | 60.94957 | 36542 ft | 389 kts | 258° |
| 2026-05-05 21:21 | 24.30791 | 60.89164 | 36499 ft | 391 kts | 258° |
| 2026-05-05 21:21 | 24.29572 | 60.83372 | 36568 ft | 389 kts | 258° |
| 2026-05-05 21:22 | 24.28355 | 60.77603 | 36566 ft | 389 kts | 258° |
| 2026-05-05 21:22 | 24.27132 | 60.71810 | 36503 ft | 391 kts | 258° |
| 2026-05-05 21:23 | 24.25903 | 60.66004 | 36549 ft | 390 kts | 258° |
| 2026-05-05 21:23 | 24.24677 | 60.60225 | 36596 ft | 389 kts | 258° |
| 2026-05-05 21:24 | 24.23448 | 60.54436 | 36532 ft | 391 kts | 258° |
| 2026-05-05 21:24 | 24.22211 | 60.48627 | 36543 ft | 391 kts | 258° |
| 2026-05-05 21:25 | 24.20977 | 60.42846 | 36627 ft | 389 kts | 258° |
| 2026-05-05 21:25 | 24.19743 | 60.37073 | 36602 ft | 390 kts | 258° |
| 2026-05-05 21:26 | 24.18504 | 60.31285 | 36593 ft | 390 kts | 258° |
| 2026-05-05 21:26 | 24.17263 | 60.25503 | 36618 ft | 390 kts | 258° |
| 2026-05-05 21:27 | 24.16021 | 60.19723 | 36594 ft | 390 kts | 258° |
| 2026-05-05 21:27 | 24.14774 | 60.13938 | 36610 ft | 390 kts | 258° |
| 2026-05-05 21:28 | 24.13527 | 60.08156 | 36619 ft | 390 kts | 258° |
| 2026-05-05 21:28 | 24.12274 | 60.02365 | 36605 ft | 391 kts | 258° |
| 2026-05-05 21:29 | 24.11020 | 59.96577 | 36617 ft | 391 kts | 257° |
| 2026-05-05 21:29 | 24.09764 | 59.90791 | 36617 ft | 391 kts | 257° |
| 2026-05-05 21:30 | 24.08505 | 59.85002 | 36615 ft | 391 kts | 257° |
| 2026-05-05 21:30 | 24.07243 | 59.79212 | 36614 ft | 391 kts | 257° |
| 2026-05-05 21:31 | 24.05980 | 59.73425 | 36618 ft | 391 kts | 257° |
| 2026-05-05 21:31 | 24.05382 | 59.70531 | 36571 ft | 384 kts | 273° |
| 2026-05-05 21:31 | 24.05389 | 59.67660 | 36264 ft | 375 kts | 262° |
| 2026-05-05 21:32 | 24.04778 | 59.64860 | 35663 ft | 389 kts | 251° |
| 2026-05-05 21:32 | 24.03827 | 59.62024 | 35198 ft | 402 kts | 252° |
| 2026-05-05 21:32 | 24.02965 | 59.59118 | 35301 ft | 399 kts | 255° |
| 2026-05-05 21:32 | 24.02221 | 59.56218 | 35543 ft | 394 kts | 256° |
| 2026-05-05 21:33 | 24.01547 | 59.53326 | 35748 ft | 389 kts | 257° |
| 2026-05-05 21:33 | 24.00914 | 59.50470 | 35976 ft | 384 kts | 257° |
| 2026-05-05 21:33 | 24.00299 | 59.47645 | 36308 ft | 382 kts | 257° |
| 2026-05-05 21:33 | 23.99681 | 59.44803 | 36485 ft | 386 kts | 257° |
| 2026-05-05 21:34 | 23.99055 | 59.41933 | 36624 ft | 390 kts | 257° |
| 2026-05-05 21:34 | 23.98418 | 59.39030 | 36702 ft | 396 kts | 257° |
| 2026-05-05 21:34 | 23.97105 | 59.33080 | 36768 ft | 409 kts | 257° |
| 2026-05-05 21:35 | 23.95741 | 59.26926 | 36781 ft | 423 kts | 257° |
| 2026-05-05 21:35 | 23.94332 | 59.20582 | 36781 ft | 436 kts | 257° |
| 2026-05-05 21:36 | 23.92878 | 59.14051 | 36774 ft | 447 kts | 257° |
| 2026-05-05 21:36 | 23.91525 | 59.07343 | 36773 ft | 456 kts | 259° |
| 2026-05-05 21:37 | 23.90265 | 59.00486 | 36771 ft | 462 kts | 259° |
| 2026-05-05 21:37 | 23.88988 | 58.93598 | 36759 ft | 463 kts | 259° |
| 2026-05-05 21:38 | 23.87685 | 58.86701 | 36762 ft | 463 kts | 258° |
| 2026-05-05 21:38 | 23.86370 | 58.79808 | 36761 ft | 463 kts | 258° |
| 2026-05-05 21:39 | 23.85055 | 58.72932 | 36766 ft | 462 kts | 258° |
| 2026-05-05 21:39 | 23.83739 | 58.66068 | 36759 ft | 461 kts | 258° |
| 2026-05-05 21:40 | 23.82431 | 58.59260 | 36760 ft | 461 kts | 258° |
| 2026-05-05 21:40 | 23.81114 | 58.52415 | 36766 ft | 460 kts | 258° |
| 2026-05-05 21:41 | 23.79786 | 58.45539 | 36769 ft | 460 kts | 258° |
| 2026-05-05 21:41 | 23.78474 | 58.38757 | 36770 ft | 460 kts | 258° |
| 2026-05-05 21:42 | 23.77142 | 58.31890 | 36773 ft | 460 kts | 258° |
| 2026-05-05 21:42 | 23.75823 | 58.25108 | 36775 ft | 460 kts | 258° |
| 2026-05-05 21:43 | 23.74484 | 58.18236 | 36775 ft | 460 kts | 258° |
| 2026-05-05 21:43 | 23.73151 | 58.11413 | 36777 ft | 460 kts | 258° |
| 2026-05-05 21:44 | 23.71813 | 58.04580 | 36777 ft | 460 kts | 258° |
| 2026-05-05 21:44 | 23.70473 | 57.97752 | 36787 ft | 460 kts | 258° |
| 2026-05-05 21:45 | 23.69673 | 57.90868 | 36794 ft | 459 kts | 274° |
| 2026-05-05 21:45 | 23.71203 | 57.84108 | 36802 ft | 460 kts | 285° |
| 2026-05-05 21:46 | 23.72779 | 57.77339 | 36807 ft | 461 kts | 281° |
| 2026-05-05 21:46 | 23.74198 | 57.70502 | 36801 ft | 463 kts | 282° |
| 2026-05-05 21:47 | 23.75675 | 57.63655 | 36804 ft | 464 kts | 282° |
| 2026-05-05 21:47 | 23.77176 | 57.56794 | 36801 ft | 465 kts | 282° |
| 2026-05-05 21:48 | 23.78664 | 57.49935 | 36804 ft | 464 kts | 282° |
| 2026-05-05 21:48 | 23.80143 | 57.43083 | 36806 ft | 463 kts | 282° |
| 2026-05-05 21:49 | 23.81616 | 57.36243 | 36808 ft | 462 kts | 282° |
| 2026-05-05 21:49 | 23.83084 | 57.29415 | 36809 ft | 461 kts | 282° |
| 2026-05-05 21:50 | 23.84547 | 57.22595 | 36818 ft | 461 kts | 282° |
| 2026-05-05 21:50 | 23.86005 | 57.15785 | 36817 ft | 460 kts | 282° |
| 2026-05-05 21:51 | 23.87458 | 57.08982 | 36822 ft | 460 kts | 282° |
| 2026-05-05 21:51 | 23.88906 | 57.02181 | 36827 ft | 460 kts | 282° |
| 2026-05-05 21:52 | 23.91076 | 56.91972 | 36833 ft | 460 kts | 281° |
| 2026-05-05 21:53 | 23.92518 | 56.85164 | 36835 ft | 460 kts | 281° |
| 2026-05-05 21:53 | 23.93715 | 56.79501 | 36784 ft | 461 kts | 281° |
| 2026-05-05 21:53 | 23.94684 | 56.74906 | 36333 ft | 464 kts | 281° |
| 2026-05-05 21:54 | 23.95163 | 56.72635 | 36141 ft | 463 kts | 281° |
| 2026-05-05 21:54 | 23.95886 | 56.69204 | 35833 ft | 462 kts | 281° |
| 2026-05-05 21:54 | 23.96607 | 56.65775 | 35520 ft | 463 kts | 281° |
| 2026-05-05 21:54 | 23.97326 | 56.62356 | 35240 ft | 462 kts | 281° |
| 2026-05-05 21:55 | 23.98045 | 56.58930 | 34937 ft | 462 kts | 281° |
| 2026-05-05 21:55 | 23.98763 | 56.55503 | 34631 ft | 462 kts | 281° |
| 2026-05-05 21:55 | 23.99480 | 56.52076 | 34345 ft | 463 kts | 281° |
| 2026-05-05 21:55 | 24.00202 | 56.48623 | 33794 ft | 469 kts | 281° |
| 2026-05-05 21:56 | 24.00931 | 56.45132 | 33227 ft | 473 kts | 281° |
| 2026-05-05 21:56 | 24.01663 | 56.41618 | 32692 ft | 475 kts | 282° |
| 2026-05-05 21:56 | 24.02400 | 56.38081 | 32163 ft | 477 kts | 282° |
| 2026-05-05 21:56 | 24.03137 | 56.34542 | 31632 ft | 478 kts | 282° |
| 2026-05-05 21:57 | 24.03874 | 56.31001 | 31117 ft | 478 kts | 282° |
| 2026-05-05 21:57 | 24.04618 | 56.27460 | 30595 ft | 478 kts | 283° |
| 2026-05-05 21:57 | 24.05619 | 56.23996 | 30103 ft | 477 kts | 290° |
| 2026-05-05 21:57 | 24.06831 | 56.20635 | 29557 ft | 472 kts | 291° |
| 2026-05-05 21:58 | 24.08059 | 56.17334 | 28977 ft | 466 kts | 291° |
| 2026-05-05 21:58 | 24.09266 | 56.14066 | 28416 ft | 460 kts | 291° |
| 2026-05-05 21:58 | 24.10437 | 56.10826 | 27844 ft | 456 kts | 290° |
| 2026-05-05 21:58 | 24.11583 | 56.07598 | 27299 ft | 453 kts | 290° |
| 2026-05-05 21:59 | 24.12707 | 56.04393 | 26758 ft | 449 kts | 290° |
| 2026-05-05 21:59 | 24.13818 | 56.01206 | 26147 ft | 448 kts | 290° |
| 2026-05-05 21:59 | 24.14927 | 55.98021 | 25554 ft | 447 kts | 290° |
| 2026-05-05 21:59 | 24.16033 | 55.94843 | 24957 ft | 446 kts | 290° |
| 2026-05-05 22:00 | 24.17137 | 55.91671 | 24361 ft | 445 kts | 290° |
| 2026-05-05 22:00 | 24.18236 | 55.88513 | 23791 ft | 443 kts | 290° |
| 2026-05-05 22:00 | 24.19333 | 55.85362 | 23193 ft | 442 kts | 290° |
| 2026-05-05 22:00 | 24.20424 | 55.82226 | 22508 ft | 439 kts | 290° |
| 2026-05-05 22:01 | 24.21495 | 55.79111 | 21851 ft | 435 kts | 289° |
| 2026-05-05 22:01 | 24.22372 | 55.75957 | 21203 ft | 431 kts | 285° |
| 2026-05-05 22:01 | 24.23110 | 55.72786 | 20574 ft | 428 kts | 284° |
| 2026-05-05 22:01 | 24.23820 | 55.69631 | 19949 ft | 425 kts | 284° |
| 2026-05-05 22:02 | 24.24550 | 55.66508 | 19344 ft | 422 kts | 285° |
| 2026-05-05 22:02 | 24.25303 | 55.63413 | 18753 ft | 419 kts | 285° |
| 2026-05-05 22:02 | 24.25976 | 55.60678 | 18237 ft | 417 kts | 285° |
| 2026-05-05 22:02 | 24.26575 | 55.57991 | 17706 ft | 414 kts | 283° |
| 2026-05-05 22:03 | 24.27170 | 55.54909 | 17047 ft | 412 kts | 282° |
| 2026-05-05 22:03 | 24.27727 | 55.51878 | 16369 ft | 394 kts | 282° |
| 2026-05-05 22:03 | 24.28252 | 55.49027 | 15723 ft | 371 kts | 282° |
| 2026-05-05 22:03 | 24.28772 | 55.46259 | 15162 ft | 370 kts | 282° |
| 2026-05-05 22:04 | 24.29292 | 55.43535 | 14952 ft | 360 kts | 282° |
| 2026-05-05 22:04 | 24.29801 | 55.40884 | 14812 ft | 349 kts | 282° |
| 2026-05-05 22:04 | 24.30291 | 55.38334 | 14794 ft | 334 kts | 282° |
| 2026-05-05 22:04 | 24.30769 | 55.35897 | 14776 ft | 320 kts | 284° |
| 2026-05-05 22:05 | 24.31405 | 55.33584 | 14798 ft | 319 kts | 289° |
| 2026-05-05 22:05 | 24.32141 | 55.31271 | 14611 ft | 323 kts | 289° |
| 2026-05-05 22:05 | 24.32891 | 55.28947 | 14311 ft | 323 kts | 289° |
| 2026-05-05 22:05 | 24.33625 | 55.26637 | 14010 ft | 319 kts | 289° |
| 2026-05-05 22:06 | 24.34341 | 55.24340 | 13691 ft | 317 kts | 289° |
| 2026-05-05 22:06 | 24.35045 | 55.22054 | 13324 ft | 316 kts | 288° |
| 2026-05-05 22:06 | 24.35743 | 55.19776 | 12933 ft | 315 kts | 288° |
| 2026-05-05 22:06 | 24.36437 | 55.17507 | 12562 ft | 313 kts | 288° |
| 2026-05-05 22:07 | 24.37127 | 55.15248 | 12196 ft | 312 kts | 288° |
| 2026-05-05 22:07 | 24.37814 | 55.12996 | 11827 ft | 311 kts | 288° |
| 2026-05-05 22:07 | 24.38500 | 55.10746 | 11470 ft | 310 kts | 288° |
| 2026-05-05 22:07 | 24.39183 | 55.08507 | 11115 ft | 309 kts | 288° |
| 2026-05-05 22:08 | 24.39865 | 55.06274 | 10766 ft | 309 kts | 288° |
| 2026-05-05 22:08 | 24.40549 | 55.04043 | 10412 ft | 308 kts | 288° |
| 2026-05-05 22:08 | 24.41230 | 55.01822 | 10067 ft | 307 kts | 288° |
| 2026-05-05 22:08 | 24.41910 | 54.99604 | 9728 ft | 307 kts | 288° |
| 2026-05-05 22:09 | 24.42586 | 54.97387 | 9348 ft | 306 kts | 288° |
| 2026-05-05 22:09 | 24.43260 | 54.95172 | 8977 ft | 306 kts | 288° |
| 2026-05-05 22:09 | 24.43933 | 54.92959 | 8617 ft | 305 kts | 288° |
| 2026-05-05 22:09 | 24.44603 | 54.90753 | 8257 ft | 305 kts | 288° |
| 2026-05-05 22:10 | 24.45274 | 54.88548 | 7896 ft | 304 kts | 288° |
| 2026-05-05 22:10 | 24.45935 | 54.86372 | 7755 ft | 295 kts | 288° |
| 2026-05-05 22:10 | 24.46581 | 54.84248 | 7762 ft | 293 kts | 288° |
| 2026-05-05 22:10 | 24.47223 | 54.82131 | 7752 ft | 292 kts | 288° |
| 2026-05-05 22:11 | 24.47864 | 54.80021 | 7749 ft | 291 kts | 288° |
| 2026-05-05 22:11 | 24.48504 | 54.77914 | 7748 ft | 291 kts | 288° |
| 2026-05-05 22:11 | 24.49144 | 54.75806 | 7750 ft | 291 kts | 288° |
| 2026-05-05 22:11 | 24.49782 | 54.73703 | 7748 ft | 291 kts | 289° |
| 2026-05-05 22:12 | 24.50420 | 54.71597 | 7748 ft | 291 kts | 289° |
| 2026-05-05 22:12 | 24.51074 | 54.69501 | 7741 ft | 287 kts | 293° |
| 2026-05-05 22:12 | 24.52091 | 54.67639 | 7757 ft | 287 kts | 308° |
| 2026-05-05 22:12 | 24.53359 | 54.65920 | 7686 ft | 293 kts | 310° |
| 2026-05-05 22:13 | 24.54657 | 54.64191 | 7527 ft | 292 kts | 310° |
| 2026-05-05 22:13 | 24.55914 | 54.62466 | 7344 ft | 286 kts | 309° |
| 2026-05-05 22:13 | 24.57124 | 54.60776 | 7174 ft | 278 kts | 309° |
| 2026-05-05 22:13 | 24.58291 | 54.59136 | 7087 ft | 266 kts | 309° |
| 2026-05-05 22:14 | 24.59410 | 54.57557 | 6912 ft | 258 kts | 309° |
| 2026-05-05 22:14 | 24.60492 | 54.56028 | 6724 ft | 250 kts | 309° |
| 2026-05-05 22:14 | 24.61548 | 54.54536 | 6561 ft | 244 kts | 309° |
| 2026-05-05 22:14 | 24.62580 | 54.53077 | 6348 ft | 240 kts | 309° |
| 2026-05-05 22:15 | 24.63600 | 54.51635 | 6177 ft | 238 kts | 309° |
| 2026-05-05 22:15 | 24.64610 | 54.50206 | 5986 ft | 236 kts | 309° |
| 2026-05-05 22:15 | 24.65618 | 54.48794 | 5792 ft | 234 kts | 310° |
| 2026-05-05 22:15 | 24.66629 | 54.47403 | 5592 ft | 231 kts | 304° |
| 2026-05-05 22:16 | 24.67037 | 54.45729 | 5344 ft | 231 kts | 267° |
| 2026-05-05 22:16 | 24.66822 | 54.44013 | 5191 ft | 223 kts | 264° |
| 2026-05-05 22:16 | 24.66643 | 54.42340 | 4986 ft | 218 kts | 266° |
| 2026-05-05 22:16 | 24.66502 | 54.40709 | 4856 ft | 211 kts | 267° |
| 2026-05-05 22:17 | 24.66243 | 54.39125 | 4767 ft | 213 kts | 246° |
| 2026-05-05 22:17 | 24.65293 | 54.37878 | 4780 ft | 220 kts | 213° |
| 2026-05-05 22:17 | 24.63837 | 54.37419 | 4774 ft | 221 kts | 175° |
| 2026-05-05 22:17 | 24.62440 | 54.38034 | 4713 ft | 220 kts | 136° |
| 2026-05-05 22:18 | 24.61464 | 54.39312 | 4508 ft | 217 kts | 124° |
| 2026-05-05 22:18 | 24.60576 | 54.40619 | 4282 ft | 211 kts | 124° |
| 2026-05-05 22:18 | 24.59690 | 54.41897 | 4039 ft | 211 kts | 124° |
| 2026-05-05 22:18 | 24.58797 | 54.43175 | 3774 ft | 207 kts | 126° |
| 2026-05-05 22:19 | 24.57934 | 54.44401 | 3502 ft | 199 kts | 126° |
| 2026-05-05 22:19 | 24.57094 | 54.45591 | 3231 ft | 195 kts | 126° |
| 2026-05-05 22:19 | 24.56268 | 54.46763 | 2970 ft | 194 kts | 126° |
| 2026-05-05 22:19 | 24.55441 | 54.47936 | 2719 ft | 194 kts | 126° |
| 2026-05-05 22:20 | 24.54625 | 54.49090 | 2645 ft | 188 kts | 126° |
| 2026-05-05 22:20 | 24.53844 | 54.50197 | 2578 ft | 179 kts | 126° |
| 2026-05-05 22:20 | 24.53094 | 54.51259 | 2563 ft | 175 kts | 126° |
| 2026-05-05 22:20 | 24.52341 | 54.52326 | 2460 ft | 179 kts | 126° |
| 2026-05-05 22:21 | 24.51576 | 54.53410 | 2247 ft | 179 kts | 126° |
| 2026-05-05 22:21 | 24.50822 | 54.54476 | 2023 ft | 174 kts | 126° |
| 2026-05-05 22:21 | 24.50086 | 54.55518 | 1782 ft | 172 kts | 125° |
| 2026-05-05 22:21 | 24.49351 | 54.56558 | 1592 ft | 172 kts | 126° |
| 2026-05-05 22:22 | 24.48618 | 54.57595 | 1364 ft | 172 kts | 126° |
| 2026-05-05 22:22 | 24.47887 | 54.58631 | 1136 ft | 171 kts | 126° |
| 2026-05-05 22:22 | 24.47229 | 54.59561 | 950 ft | 170 kts | 126° |
| 2026-05-05 22:22 | 24.46956 | 54.59947 | 887 ft | 168 kts | 126° |
| 2026-05-05 22:23 | 24.46226 | 54.60978 | 668 ft | 165 kts | 126° |
| 2026-05-05 22:23 | 24.45528 | 54.61966 | 460 ft | 162 kts | 127° |
| 2026-05-05 22:23 | 24.44842 | 54.62934 | 264 ft | 161 kts | 127° |
| 2026-05-05 22:23 | 24.44156 | 54.63907 | 97 ft | 159 kts | 127° |
| 2026-05-05 22:24 | 24.43593 | 54.64716 | 98 ft | 101 kts | 128° |
| 2026-05-05 22:24 | 24.43303 | 54.65125 | 99 ft | 37 kts | 128° |
| 2026-05-05 22:24 | 24.43167 | 54.65315 | 99 ft | 36 kts | 128° |
| 2026-05-05 22:24 | 24.43014 | 54.65530 | 99 ft | 35 kts | 128° |
| 2026-05-05 22:25 | 24.42859 | 54.65748 | 99 ft | 38 kts | 129° |
| 2026-05-05 22:25 | 24.42684 | 54.65993 | 100 ft | 43 kts | 127° |
| 2026-05-05 22:25 | 24.42492 | 54.66263 | 101 ft | 47 kts | 128° |
| 2026-05-05 22:25 | 24.42285 | 54.66552 | 98 ft | 48 kts | 127° |
| 2026-05-05 22:26 | 24.42165 | 54.66658 | 98 ft | 21 kts | 175° |
| 2026-05-05 22:26 | 24.42029 | 54.66529 | 99 ft | 35 kts | 245° |
| 2026-05-05 22:26 | 24.41965 | 54.66367 | 99 ft | 13 kts | 251° |
| 2026-05-05 22:26 | 24.42000 | 54.66218 | 100 ft | 30 kts | 306° |
| 2026-05-05 22:27 | 24.42137 | 54.66026 | 100 ft | 5 kts | 307° |
| 2026-05-05 22:27 | 24.42162 | 54.65987 | 97 ft | 12 kts | 301° |
| 2026-05-05 22:27 | 24.42158 | 54.65864 | 97 ft | 21 kts | 284° |
| 2026-05-05 22:27 | 24.42227 | 54.65752 | 99 ft | 15 kts | 308° |
| 2026-05-05 22:28 | 24.42237 | 54.65665 | 95 ft | 8 kts | 239° |
| 2026-05-05 22:28 | 24.42211 | 54.65638 | 98 ft | 0 kts | 217° |